Time;durP1;ratioP1;P1;durP2;ratioP2;P2;SDS_P1;SDS_P2;PMS_P1;PMS_P2;Temp;Humidity;BMP_temperature;BMP_pressure;BME280_temperature;BME280_humidity;BME280_pressure;Samples;Min_cycle;Max_cycle;Signal;HPM_P1;HPM_P2
2023/05/29 00:00:05;;;;;;;0.40;0.23;;;;;;;17.43;100.00;94974.84;5011945;28;20515;-60
2023/05/29 00:02:34;;;;;;;1.13;0.40;;;;;;;17.56;100.00;94980.00;5012247;28;20437;-60
2023/05/29 00:05:02;;;;;;;0.40;0.30;;;;;;;17.31;100.00;94972.81;5011943;28;20488;-59
2023/05/29 00:07:32;;;;;;;2.30;0.47;;;;;;;17.08;100.00;94974.09;5011943;28;20463;-59
2023/05/29 00:10:02;;;;;;;0.40;0.30;;;;;;;17.06;100.00;94971.75;5011978;28;20456;-59
2023/05/29 00:12:30;;;;;;;5.80;0.30;;;;;;;17.17;100.00;94972.22;5011888;28;20851;-59
2023/05/29 00:14:58;;;;;;;0.40;0.30;;;;;;;16.75;100.00;94973.84;5013094;28;20494;-59
2023/05/29 00:17:27;;;;;;;0.60;0.50;;;;;;;16.59;100.00;94962.06;5015575;28;20444;-59
2023/05/29 00:19:56;;;;;;;0.40;0.30;;;;;;;16.95;100.00;94981.22;5002879;28;20464;-59
2023/05/29 00:22:24;;;;;;;0.53;0.53;;;;;;;17.10;100.00;94980.72;5015785;28;20841;-58
2023/05/29 00:24:52;;;;;;;0.50;0.40;;;;;;;17.07;100.00;94993.97;5015518;28;20504;-59
2023/05/29 00:27:22;;;;;;;0.40;0.20;;;;;;;17.11;100.00;94986.88;5015653;28;20597;-59
2023/05/29 00:29:50;;;;;;;0.73;0.43;;;;;;;16.98;100.00;94982.47;5015627;28;20462;-59
2023/05/29 00:32:18;;;;;;;0.40;0.20;;;;;;;16.82;100.00;94987.56;5015318;28;20451;-59
2023/05/29 00:34:47;;;;;;;0.40;0.20;;;;;;;16.94;100.00;94976.19;5015560;28;20436;-59
2023/05/29 00:37:15;;;;;;;2.73;0.30;;;;;;;16.64;100.00;94972.59;5015492;28;20498;-60
2023/05/29 00:39:44;;;;;;;0.67;0.47;;;;;;;16.12;100.00;94969.03;5015588;28;20586;-59
2023/05/29 00:42:12;;;;;;;1.37;0.60;;;;;;;15.80;100.00;94974.78;5015309;28;20523;-59
2023/05/29 00:44:42;;;;;;;3.43;1.33;;;;;;;15.52;100.00;94973.41;5015351;28;20440;-59
2023/05/29 00:47:10;;;;;;;0.40;0.30;;;;;;;15.28;100.00;94966.53;5015021;28;20514;-59
2023/05/29 00:49:39;;;;;;;0.40;0.30;;;;;;;15.32;100.00;94964.03;5015272;28;20448;-59
2023/05/29 00:52:10;;;;;;;1.80;1.50;;;;;;;15.41;100.00;94954.16;5015049;28;20440;-59
2023/05/29 00:54:38;;;;;;;0.50;0.50;;;;;;;15.85;100.00;94953.25;5015088;28;20498;-59
2023/05/29 00:57:07;;;;;;;0.40;0.20;;;;;;;15.99;100.00;94948.56;5015068;28;20506;-59
2023/05/29 00:59:35;;;;;;;0.50;0.40;;;;;;;15.85;100.00;94953.25;5014911;28;21046;-59
2023/05/29 01:02:06;;;;;;;0.40;0.30;;;;;;;16.43;100.00;94959.03;5014936;28;20486;-59
2023/05/29 01:04:35;;;;;;;0.40;0.20;;;;;;;16.76;100.00;94961.25;5014844;28;20444;-59
2023/05/29 01:07:04;;;;;;;0.50;0.30;;;;;;;16.71;100.00;94958.72;5002157;28;20936;-59
2023/05/29 01:09:34;;;;;;;0.40;0.30;;;;;;;15.93;100.00;94965.88;5015039;28;20474;-59
2023/05/29 01:12:16;;;;;;;0.83;0.30;;;;;;;15.93;100.00;94959.72;5014831;28;20500;-59
2023/05/29 01:14:53;;;;;;;0.57;0.53;;;;;;;15.95;100.00;94961.00;5014506;28;20444;-59
2023/05/29 01:17:34;;;;;;;0.43;0.37;;;;;;;15.84;100.00;94963.16;5014803;28;20523;-59
2023/05/29 01:20:15;;;;;;;0.50;0.30;;;;;;;16.18;100.00;94977.72;5014389;28;20480;-59
2023/05/29 01:23:05;;;;;;;0.50;0.40;;;;;;;15.78;100.00;94979.66;5014451;28;20495;-59
2023/05/29 01:25:51;;;;;;;0.67;0.67;;;;;;;15.16;100.00;94981.53;5014126;28;20533;-59
2023/05/29 01:28:22;;;;;;;0.40;0.30;;;;;;;15.60;100.00;94984.16;5014750;28;20455;-60
2023/05/29 01:30:51;;;;;;;0.50;0.30;;;;;;;15.95;100.00;94970.88;5014200;28;20490;-59
2023/05/29 01:33:20;;;;;;;0.40;0.20;;;;;;;16.25;100.00;94978.03;5014680;28;20519;-59
2023/05/29 01:35:49;;;;;;;0.40;0.30;;;;;;;16.28;100.00;94980.88;5014307;28;20864;-59
2023/05/29 01:38:17;;;;;;;0.50;0.40;;;;;;;16.44;100.00;94965.16;5014673;28;20436;-59
2023/05/29 01:40:46;;;;;;;0.40;0.30;;;;;;;16.44;100.00;94959.81;5014315;28;20436;-59
2023/05/29 01:43:15;;;;;;;0.40;0.30;;;;;;;16.62;100.00;94963.31;5014448;28;20440;-59
2023/05/29 01:45:45;;;;;;;0.40;0.30;;;;;;;16.44;100.00;94968.59;5014333;28;20799;-59
2023/05/29 01:48:14;;;;;;;0.67;0.67;;;;;;;15.70;100.00;94964.38;5014206;28;20440;-59
2023/05/29 01:50:44;;;;;;;0.60;0.40;;;;;;;15.24;100.00;94957.56;5014168;28;20468;-59
2023/05/29 01:53:12;;;;;;;2.07;1.93;;;;;;;14.92;100.00;94936.50;5014472;28;20850;-58
2023/05/29 01:55:59;;;;;;;3.13;0.60;;;;;;;15.24;100.00;94954.09;5014302;28;20475;-59
2023/05/29 01:58:30;;;;;;;0.60;0.30;;;;;;;15.30;100.00;94947.53;5014162;28;20511;-58
2023/05/29 02:01:00;;;;;;;1.17;1.07;;;;;;;15.05;100.00;94954.31;5014007;28;20451;-58
2023/05/29 02:03:29;;;;;;;0.40;0.30;;;;;;;14.81;100.00;94953.84;5013925;28;20564;-58
2023/05/29 02:05:58;;;;;;;0.43;0.30;;;;;;;14.86;100.00;94948.38;5013926;28;20439;-59
2023/05/29 02:08:27;;;;;;;0.40;0.40;;;;;;;14.78;100.00;94941.13;5013822;28;20956;-58
2023/05/29 02:10:55;;;;;;;0.80;0.80;;;;;;;14.72;100.00;94920.22;5013860;28;20494;-58
2023/05/29 02:13:24;;;;;;;0.83;0.83;;;;;;;14.77;100.00;94923.53;5013623;28;20454;-58
2023/05/29 02:15:52;;;;;;;0.40;0.30;;;;;;;14.95;100.00;94922.53;5013742;28;20517;-58
2023/05/29 02:18:22;;;;;;;0.60;0.30;;;;;;;15.23;100.00;94915.94;5013895;28;20559;-58
2023/05/29 02:20:50;;;;;;;0.40;0.30;;;;;;;15.44;100.00;94923.38;5013716;28;20549;-57
2023/05/29 02:23:20;;;;;;;0.80;0.80;;;;;;;16.05;100.00;94930.50;5013243;28;20490;-58
2023/05/29 02:25:48;;;;;;;0.60;0.40;;;;;;;15.93;100.00;94947.16;5013440;28;20440;-58
2023/05/29 02:28:16;;;;;;;0.43;0.33;;;;;;;15.86;100.00;94954.84;5013420;28;21102;-58
2023/05/29 02:30:45;;;;;;;0.43;0.40;;;;;;;15.54;100.00;94952.53;5013414;28;20518;-58
2023/05/29 02:33:13;;;;;;;4.00;0.30;;;;;;;15.74;100.00;94960.78;5013553;28;20444;-58
2023/05/29 02:35:42;;;;;;;6.57;0.40;;;;;;;15.69;100.00;94954.78;5013171;28;20827;-58
2023/05/29 02:38:11;;;;;;;0.40;0.30;;;;;;;15.21;100.00;94965.38;5012632;28;20862;-58
2023/05/29 02:40:39;;;;;;;0.50;0.40;;;;;;;15.24;100.00;94959.44;5012941;28;20475;-58
2023/05/29 02:43:09;;;;;;;0.40;0.20;;;;;;;15.52;100.00;94960.06;5013009;28;20474;-58
2023/05/29 02:45:37;;;;;;;0.60;0.50;;;;;;;15.57;100.00;94962.59;5012914;28;20451;-63
2023/05/29 02:48:06;;;;;;;0.60;0.60;;;;;;;15.78;100.00;94968.97;5013011;28;20448;-57
2023/05/29 02:50:34;;;;;;;0.50;0.30;;;;;;;15.84;100.00;94955.16;5012890;28;20444;-57
2023/05/29 02:53:04;;;;;;;0.40;0.20;;;;;;;15.78;100.00;94968.97;5012958;28;20440;-58
2023/05/29 02:55:35;;;;;;;0.40;0.30;;;;;;;15.94;100.00;94967.44;5012835;28;20490;-58
2023/05/29 02:58:04;;;;;;;0.50;0.50;;;;;;;15.32;100.00;94963.25;5012948;28;20440;-58
2023/05/29 03:00:32;;;;;;;0.50;0.40;;;;;;;15.57;100.00;94967.94;4999903;28;20483;-58
2023/05/29 03:03:00;;;;;;;6.83;0.57;;;;;;;15.92;100.00;94966.97;5012601;28;21129;-58
2023/05/29 03:05:29;;;;;;;0.50;0.43;;;;;;;16.15;100.00;94968.41;5013060;28;20441;-57
2023/05/29 03:07:57;;;;;;;0.40;0.30;;;;;;;16.24;100.00;94969.22;5012655;28;20468;-58
2023/05/29 03:10:27;;;;;;;5.70;0.53;;;;;;;16.20;100.00;94972.81;5012743;28;20506;-58
2023/05/29 03:12:55;;;;;;;0.50;0.30;;;;;;;16.34;100.00;94976.94;5012447;28;20444;-58
2023/05/29 03:15:24;;;;;;;0.50;0.47;;;;;;;16.27;100.00;94979.28;5012479;28;20443;-58
2023/05/29 03:17:52;;;;;;;0.40;0.20;;;;;;;16.33;100.00;94980.72;5012229;28;20486;-58
2023/05/29 03:20:20;;;;;;;0.30;0.20;;;;;;;16.41;100.00;94985.31;5012570;28;20484;-58
2023/05/29 03:22:49;;;;;;;0.50;0.33;;;;;;;16.51;100.00;94985.00;5012072;28;20515;-58
2023/05/29 03:25:17;;;;;;;0.40;0.20;;;;;;;16.65;100.00;94987.53;5012093;28;20534;-58
2023/05/29 03:27:47;;;;;;;0.50;0.50;;;;;;;16.57;100.00;94987.53;5012299;28;20439;-58
2023/05/29 03:30:15;;;;;;;0.40;0.40;;;;;;;16.71;100.00;94991.63;5012312;28;20952;-58
2023/05/29 03:32:44;;;;;;;0.40;0.30;;;;;;;16.76;100.00;94993.34;5012108;28;20444;-58
2023/05/29 03:35:12;;;;;;;2.00;0.50;;;;;;;16.80;100.00;94999.69;5012528;28;20958;-58
2023/05/29 03:37:40;;;;;;;0.50;0.50;;;;;;;16.79;100.00;95001.56;5012476;28;20444;-58
2023/05/29 03:40:10;;;;;;;15.30;1.03;;;;;;;16.83;100.00;95009.72;5012239;28;20472;-58
2023/05/29 03:42:38;;;;;;;1.23;0.40;;;;;;;16.74;100.00;95011.63;5012000;28;20437;-58
2023/05/29 03:45:09;;;;;;;0.90;0.30;;;;;;;16.74;100.00;95017.78;5012229;28;20436;-58
2023/05/29 03:47:37;;;;;;;0.50;0.30;;;;;;;16.11;100.00;95020.16;4999887;28;20471;-58
2023/05/29 03:50:07;;;;;;;2.17;0.73;;;;;;;15.74;100.00;95022.22;5011222;28;20444;-57
2023/05/29 03:52:35;;;;;;;0.60;0.40;;;;;;;15.97;100.00;95028.28;5012144;28;20502;-58
2023/05/29 03:55:04;;;;;;;0.90;0.77;;;;;;;16.08;100.00;95032.25;5011807;28;20467;-58
2023/05/29 03:57:32;;;;;;;0.40;0.40;;;;;;;16.24;100.00;95024.59;5011950;28;20444;-58
2023/05/29 04:00:00;;;;;;;0.40;0.30;;;;;;;15.93;100.00;95024.66;5011589;28;20475;-57
2023/05/29 04:02:30;;;;;;;0.40;0.30;;;;;;;15.99;100.00;95020.75;5011851;28;20502;-59
2023/05/29 04:04:59;;;;;;;0.40;0.37;;;;;;;16.21;100.00;95025.22;5012110;28;20463;-59
2023/05/29 04:07:27;;;;;;;0.40;0.30;;;;;;;16.31;100.00;95012.34;5011712;28;20524;-59
2023/05/29 04:09:55;;;;;;;0.77;0.33;;;;;;;16.16;100.00;95023.50;5011976;28;20843;-58
2023/05/29 04:12:23;;;;;;;1.70;0.60;;;;;;;16.00;100.00;95021.53;5011801;28;20831;-58
2023/05/29 04:14:52;;;;;;;0.40;0.30;;;;;;;16.07;100.00;95033.34;5011566;28;20948;-59
2023/05/29 04:17:20;;;;;;;0.40;0.30;;;;;;;16.34;100.00;95030.44;5011649;28;20447;-57
2023/05/29 04:19:50;;;;;;;7.10;1.43;;;;;;;16.14;100.00;95030.25;5011587;28;20440;-58
2023/05/29 04:22:19;;;;;;;0.70;0.50;;;;;;;16.38;100.00;95041.28;5011428;28;20510;-58
2023/05/29 04:24:47;;;;;;;0.50;0.50;;;;;;;16.69;100.00;95030.50;5011307;28;20472;-57
2023/05/29 04:27:16;;;;;;;0.50;0.30;;;;;;;16.70;100.00;95034.75;5011607;28;20445;-58
2023/05/29 04:29:44;;;;;;;0.57;0.33;;;;;;;16.66;100.00;95037.28;4999033;28;20527;-58
2023/05/29 04:32:13;;;;;;;1.37;0.40;;;;;;;16.76;100.00;95036.19;5011206;28;20452;-58
2023/05/29 04:34:43;;;;;;;0.50;0.30;;;;;;;16.92;100.00;95034.63;5011518;28;20852;-58
2023/05/29 04:37:14;;;;;;;0.70;0.37;;;;;;;17.09;100.00;95034.59;5011601;28;20444;-60
2023/05/29 04:39:42;;;;;;;0.40;0.30;;;;;;;17.07;100.00;95024.22;5011695;28;20499;-60
2023/05/29 04:42:10;;;;;;;0.40;0.40;;;;;;;16.97;100.00;95029.09;5011081;28;20444;-57
2023/05/29 04:44:39;;;;;;;0.53;0.30;;;;;;;16.99;100.00;95037.59;5011189;28;20439;-59
2023/05/29 04:47:07;;;;;;;0.63;0.63;;;;;;;16.82;100.00;95032.25;5011208;28;20448;-59
2023/05/29 04:49:35;;;;;;;0.40;0.30;;;;;;;16.64;100.00;95033.34;5011338;28;20804;-58
2023/05/29 04:52:07;;;;;;;2.30;1.47;;;;;;;16.63;100.00;95023.72;5011067;28;20947;-58
2023/05/29 04:54:37;;;;;;;0.50;0.50;;;;;;;16.61;100.00;95036.63;5011277;28;20445;-58
2023/05/29 04:57:05;;;;;;;0.40;0.30;;;;;;;16.84;100.00;95038.88;5011420;28;20437;-58
2023/05/29 04:59:34;;;;;;;0.60;0.40;;;;;;;16.88;100.00;95045.16;5011712;28;20440;-58
2023/05/29 05:02:02;;;;;;;0.50;0.40;;;;;;;16.41;100.00;95046.03;5014172;28;20480;-50
2023/05/29 05:04:32;;;;;;;1.17;1.07;;;;;;;16.02;100.00;95054.09;5015509;28;20475;-51
2023/05/29 05:07:00;;;;;;;0.83;0.83;;;;;;;15.91;100.00;95052.81;5014869;28;20447;-51
2023/05/29 05:09:28;;;;;;;0.60;0.50;;;;;;;15.69;100.00;95061.66;5014766;28;20439;-51
2023/05/29 05:11:58;;;;;;;0.80;0.80;;;;;;;16.13;100.00;95060.75;5002288;28;20432;-57
2023/05/29 05:14:26;;;;;;;3.33;0.90;;;;;;;16.29;100.00;95060.00;5014772;28;20452;-56
2023/05/29 05:16:57;;;;;;;1.33;1.23;;;;;;;15.36;100.00;94966.88;5014955;28;20466;-58
2023/05/29 05:19:26;;;;;;;1.67;0.80;;;;;;;16.36;100.00;95068.38;5014540;28;20472;-57
2023/05/29 05:21:54;;;;;;;0.40;0.40;;;;;;;16.79;100.00;95070.34;5014736;28;20476;-57
2023/05/29 05:24:22;;;;;;;1.77;1.43;;;;;;;17.11;100.00;95067.19;5014426;28;20488;-57
2023/05/29 05:26:51;;;;;;;0.60;0.60;;;;;;;17.12;100.00;95063.44;5015060;28;20476;-57
2023/05/29 05:29:20;;;;;;;0.60;0.53;;;;;;;17.42;100.00;95069.69;5014807;28;20449;-56
2023/05/29 05:31:49;;;;;;;0.70;0.47;;;;;;;17.47;100.00;95059.59;5014880;28;20518;-57
2023/05/29 05:34:17;;;;;;;0.40;0.40;;;;;;;17.61;100.00;95054.88;5014462;28;20445;-56
2023/05/29 05:36:45;;;;;;;0.57;0.57;;;;;;;17.54;100.00;95051.91;5001925;28;20461;-57
2023/05/29 05:39:14;;;;;;;0.57;0.43;;;;;;;17.74;100.00;95058.47;4997854;28;20434;-53
2023/05/29 05:41:42;;;;;;;0.57;0.57;;;;;;;18.11;100.00;95062.28;5014618;28;20570;-52
2023/05/29 05:44:11;;;;;;;0.83;0.83;;;;;;;17.91;100.00;95068.34;5014714;28;20443;-53
2023/05/29 05:46:40;;;;;;;1.43;1.33;;;;;;;18.03;100.00;95066.56;5014321;28;20494;-53
2023/05/29 05:49:08;;;;;;;0.57;0.53;;;;;;;18.04;100.00;95070.00;5014611;28;20447;-53
2023/05/29 05:51:37;;;;;;;0.70;0.70;;;;;;;18.31;100.00;95077.66;5014177;28;20448;-53
2023/05/29 05:54:05;;;;;;;0.90;0.90;;;;;;;18.23;100.00;95071.22;5013746;28;20979;-52
2023/05/29 05:56:33;;;;;;;0.50;0.50;;;;;;;17.99;100.00;95067.50;5013839;28;20451;-53
2023/05/29 05:59:02;;;;;;;0.50;0.30;;;;;;;18.15;100.00;95071.25;5014112;28;20483;-53
2023/05/29 06:01:31;;;;;;;0.80;0.80;;;;;;;18.13;100.00;95078.84;5013857;28;20467;-53
2023/05/29 06:04:00;;;;;;;0.40;0.30;;;;;;;18.42;100.00;95064.66;5013656;28;20440;-54
2023/05/29 06:06:31;;;;;;;1.53;1.43;;;;;;;18.48;100.00;95066.06;5013817;28;20456;-53
2023/05/29 06:08:59;;;;;;;2.53;2.10;;;;;;;18.57;100.00;95062.22;5013622;28;20444;-53
2023/05/29 06:11:28;;;;;;;6.63;2.57;;;;;;;18.57;100.00;95075.63;5013646;28;20440;-53
2023/05/29 06:13:56;;;;;;;7.50;3.27;;;;;;;18.70;100.00;95077.28;5013343;28;20491;-53
2023/05/29 06:16:24;;;;;;;1.10;1.00;;;;;;;18.60;100.00;95077.66;5013794;28;20440;-53
2023/05/29 06:18:53;;;;;;;1.60;1.50;;;;;;;18.48;100.00;95068.75;5013517;28;20937;-52
2023/05/29 06:21:23;;;;;;;2.13;2.03;;;;;;;18.73;100.00;95081.22;5013189;28;20495;-53
2023/05/29 06:23:51;;;;;;;4.40;4.10;;;;;;;18.69;100.00;95070.38;5013092;28;20530;-53
2023/05/29 06:26:19;;;;;;;4.63;2.73;;;;;;;18.20;100.00;95092.53;5013038;28;20494;-59
2023/05/29 06:28:48;;;;;;;0.70;0.50;;;;;;;17.85;100.00;95096.44;5013186;28;20523;-58
2023/05/29 06:31:16;;;;;;;1.07;1.00;;;;;;;18.05;100.00;95085.00;5012488;28;20494;-58
2023/05/29 06:33:45;;;;;;;0.60;0.40;;;;;;;18.25;100.00;95095.81;5013663;28;20483;-58
2023/05/29 06:36:13;;;;;;;0.77;0.67;;;;;;;18.16;100.00;95094.28;5013577;28;20498;-58
2023/05/29 06:38:47;;;;;;;0.40;0.30;;;;;;;18.29;100.00;95086.00;5013330;28;20506;-57
2023/05/29 06:41:16;;;;;;;1.07;0.40;;;;;;;18.24;100.00;95098.84;5012974;28;20848;-58
2023/05/29 06:43:44;;;;;;;0.80;0.70;;;;;;;17.85;100.00;95104.47;5012706;28;20444;-58
2023/05/29 06:46:12;;;;;;;0.47;0.40;;;;;;;17.76;100.00;95110.66;5012805;28;20452;-59
2023/05/29 06:48:41;;;;;;;0.40;0.30;;;;;;;17.73;100.00;95107.84;5012725;28;20444;-58
2023/05/29 06:51:11;;;;;;;2.97;0.83;;;;;;;17.32;100.00;95102.97;5013100;28;20483;-59
2023/05/29 06:53:40;;;;;;;0.47;0.30;;;;;;;17.82;100.00;95102.44;5012912;28;20567;-58
2023/05/29 06:56:10;;;;;;;0.40;0.30;;;;;;;18.17;100.00;95090.47;5013153;28;20437;-59
2023/05/29 06:58:39;;;;;;;0.40;0.40;;;;;;;18.37;100.00;95090.56;5013100;28;20444;-59
2023/05/29 07:01:08;;;;;;;1.17;0.50;;;;;;;18.65;100.00;95080.16;5012705;28;20803;-60
2023/05/29 07:03:36;;;;;;;0.60;0.53;;;;;;;19.08;100.00;95087.91;5017971;28;20448;-59
2023/05/29 07:06:06;;;;;;;2.20;0.67;;;;;;;18.95;100.00;95083.59;5012623;28;20961;-59
2023/05/29 07:08:34;;;;;;;2.17;0.83;;;;;;;19.39;100.00;95076.78;5012583;28;20448;-58
2023/05/29 07:11:03;;;;;;;0.60;0.57;;;;;;;19.76;100.00;95075.78;5012522;28;20999;-58
2023/05/29 07:13:33;;;;;;;0.80;0.80;;;;;;;19.92;99.04;95073.25;5012513;28;20859;-58
2023/05/29 07:16:01;;;;;;;0.50;0.50;;;;;;;20.58;97.02;95081.97;5012542;28;20476;-58
2023/05/29 07:18:40;;;;;;;0.50;0.47;;;;;;;20.67;93.63;95059.16;5012760;28;21006;-58
2023/05/29 07:21:11;;;;;;;0.50;0.30;;;;;;;20.69;91.87;95077.69;5012447;28;20444;-58
2023/05/29 07:23:40;;;;;;;0.60;0.60;;;;;;;20.53;94.68;95072.22;5012133;28;20477;-58
2023/05/29 07:26:08;;;;;;;2.93;0.50;;;;;;;20.19;97.17;95075.28;5011975;28;20440;-59
2023/05/29 07:28:38;;;;;;;0.60;0.60;;;;;;;21.06;95.83;95073.84;5012537;28;20475;-58
2023/05/29 07:31:06;;;;;;;0.50;0.40;;;;;;;21.46;89.67;95081.91;5009918;28;20496;-57
2023/05/29 07:33:35;;;;;;;0.60;0.60;;;;;;;21.78;90.22;95070.03;5000654;28;20480;-58
2023/05/29 07:36:03;;;;;;;1.67;0.87;;;;;;;21.29;92.43;95066.81;5012045;28;20975;-59
2023/05/29 07:38:32;;;;;;;1.53;1.07;;;;;;;21.20;93.00;95066.13;5012216;28;20440;-59
2023/05/29 07:41:00;;;;;;;0.87;0.87;;;;;;;21.13;92.00;95075.94;5012168;28;20955;-59
2023/05/29 07:43:28;;;;;;;0.40;0.30;;;;;;;21.13;91.93;95074.03;5012016;28;20502;-59
2023/05/29 07:45:58;;;;;;;0.77;0.50;;;;;;;21.49;92.79;95076.63;5011812;28;20440;-59
2023/05/29 07:48:26;;;;;;;1.97;1.00;;;;;;;21.20;95.87;95078.84;5011983;28;20932;-58
2023/05/29 07:50:55;;;;;;;5.40;2.87;;;;;;;20.55;98.73;95079.94;5011514;28;21086;-59
2023/05/29 07:53:23;;;;;;;10.50;2.23;;;;;;;20.64;100.00;95083.31;5011477;28;20440;-59
2023/05/29 07:55:52;;;;;;;1.17;1.17;;;;;;;20.49;100.00;95082.06;5011959;28;20445;-60
2023/05/29 07:58:20;;;;;;;5.70;1.13;;;;;;;20.83;100.00;95067.34;5011474;28;20518;-59
2023/05/29 08:00:49;;;;;;;3.60;0.83;;;;;;;21.11;95.96;95080.88;5011761;28;20479;-59
2023/05/29 08:03:19;;;;;;;1.47;1.37;;;;;;;20.92;95.58;95068.78;5011194;28;20991;-59
2023/05/29 08:05:48;;;;;;;0.60;0.53;;;;;;;21.17;95.77;95072.25;5011681;28;20444;-59
2023/05/29 08:08:16;;;;;;;0.50;0.50;;;;;;;21.25;95.67;95074.00;5011743;28;20451;-59
2023/05/29 08:10:45;;;;;;;1.10;1.10;;;;;;;20.82;97.31;95079.25;5011632;28;20444;-59
2023/05/29 08:13:13;;;;;;;0.40;0.40;;;;;;;21.18;99.10;95073.78;5012097;28;20467;-58
2023/05/29 08:15:41;;;;;;;5.67;1.33;;;;;;;21.14;98.08;95080.22;5011864;28;20436;-59
2023/05/29 08:18:10;;;;;;;2.83;1.47;;;;;;;21.14;98.28;95075.63;5011353;28;21011;-59
2023/05/29 08:20:40;;;;;;;0.60;0.40;;;;;;;22.26;92.35;95065.53;5011487;28;20444;-59
2023/05/29 08:23:08;;;;;;;1.43;1.30;;;;;;;22.12;87.19;95066.72;5011435;28;20550;-59
2023/05/29 08:25:36;;;;;;;4.43;0.70;;;;;;;22.53;82.62;95067.31;5011058;28;20844;-59
2023/05/29 08:28:05;;;;;;;3.47;0.70;;;;;;;22.53;74.79;95070.81;5011464;28;20444;-58
2023/05/29 08:30:33;;;;;;;0.60;0.50;;;;;;;23.23;70.65;95060.00;4998452;28;20444;-58
2023/05/29 08:33:01;;;;;;;18.03;0.97;;;;;;;23.41;67.45;95069.31;5011192;28;20443;-58
2023/05/29 08:35:30;;;;;;;0.40;0.30;;;;;;;23.68;67.99;95060.16;5012057;28;20440;-58
2023/05/29 08:37:59;;;;;;;0.53;0.53;;;;;;;23.13;65.73;95068.69;5015225;28;20463;-59
2023/05/29 08:40:28;;;;;;;0.40;0.30;;;;;;;23.10;65.06;95066.69;5015050;28;20451;-59
2023/05/29 08:42:59;;;;;;;0.50;0.30;;;;;;;23.03;63.32;95061.94;5015388;28;20828;-59
2023/05/29 08:45:29;;;;;;;0.40;0.30;;;;;;;23.40;64.65;95065.06;5014974;28;20527;-59
2023/05/29 08:48:01;;;;;;;0.40;0.30;;;;;;;23.00;62.12;95067.25;5015064;28;21006;-60
2023/05/29 08:50:29;;;;;;;0.70;0.60;;;;;;;22.85;64.04;95068.06;5015077;28;20432;-60
2023/05/29 08:52:59;;;;;;;0.40;0.30;;;;;;;23.17;64.20;95061.44;5014821;28;20439;-59
2023/05/29 08:55:28;;;;;;;1.03;0.40;;;;;;;22.74;62.65;94963.25;5014989;28;20447;-59
2023/05/29 08:57:57;;;;;;;0.77;0.77;;;;;;;23.83;63.16;95051.16;5014841;28;20491;-60
2023/05/29 09:00:28;;;;;;;0.60;0.60;;;;;;;23.60;61.60;95050.38;5014876;28;20569;-59
2023/05/29 09:02:59;;;;;;;0.90;0.70;;;;;;;23.92;61.65;95051.72;5014636;28;20472;-60
2023/05/29 09:05:27;;;;;;;0.50;0.40;;;;;;;24.27;60.54;95058.91;5014732;28;20436;-59
2023/05/29 09:07:57;;;;;;;0.40;0.30;;;;;;;24.16;58.86;95053.31;5014986;28;20482;-59
2023/05/29 09:10:27;;;;;;;0.40;0.40;;;;;;;24.28;59.15;95060.50;5014669;28;20795;-59
2023/05/29 09:12:55;;;;;;;0.30;0.20;;;;;;;25.06;57.78;95057.06;5002435;28;20451;-60
2023/05/29 09:15:24;;;;;;;0.30;0.20;;;;;;;26.00;59.81;95061.28;5014376;28;20444;-59
2023/05/29 09:17:53;;;;;;;0.30;0.30;;;;;;;25.91;57.30;95053.44;5015007;28;20506;-60
2023/05/29 09:20:23;;;;;;;0.60;0.60;;;;;;;25.66;56.59;95055.09;5014407;28;20452;-60
2023/05/29 09:22:56;;;;;;;0.40;0.30;;;;;;;25.81;56.26;95054.88;5014520;28;20924;-60
2023/05/29 09:25:30;;;;;;;0.50;0.40;;;;;;;25.27;56.30;95041.06;5014395;28;20475;-60
2023/05/29 09:28:00;;;;;;;0.40;0.30;;;;;;;25.37;57.11;95058.63;5014082;28;20478;-60
2023/05/29 09:30:39;;;;;;;0.40;0.30;;;;;;;24.72;57.22;95048.00;5014295;28;20440;-59
2023/05/29 09:33:10;;;;;;;0.60;0.60;;;;;;;23.60;58.21;95047.66;5014441;28;20502;-59
2023/05/29 09:35:41;;;;;;;0.40;0.30;;;;;;;24.16;58.07;95053.31;5001859;28;20444;-59
2023/05/29 09:38:11;;;;;;;0.43;0.30;;;;;;;24.45;58.01;95052.66;5014390;28;20454;-59
2023/05/29 09:41:05;;;;;;;0.40;0.37;;;;;;;23.14;59.57;95051.34;5014292;28;20522;-58
2023/05/29 09:43:34;;;;;;;0.40;0.30;;;;;;;23.49;60.25;95052.06;5014039;28;20475;-58
2023/05/29 09:46:02;;;;;;;0.50;0.50;;;;;;;23.70;59.34;95044.38;5014581;28;20448;-58
2023/05/29 09:48:32;;;;;;;0.50;0.30;;;;;;;23.60;65.29;95049.59;5014193;28;20452;-58
2023/05/29 09:51:03;;;;;;;0.50;0.30;;;;;;;23.59;69.02;95034.47;5014000;28;20494;-58
2023/05/29 09:53:32;;;;;;;0.67;0.67;;;;;;;23.96;68.09;95030.13;5014244;28;20492;-58
2023/05/29 09:56:03;;;;;;;0.40;0.30;;;;;;;24.14;67.38;95041.28;5013974;28;20440;-58
2023/05/29 09:58:35;;;;;;;0.60;0.60;;;;;;;24.62;64.17;95025.03;5013729;28;20441;-58
2023/05/29 10:01:03;;;;;;;0.30;0.20;;;;;;;24.61;58.28;95030.84;5013908;28;20442;-59
2023/05/29 10:03:34;;;;;;;0.40;0.40;;;;;;;24.74;61.10;95026.78;5013650;28;21023;-59
2023/05/29 10:06:07;;;;;;;0.40;0.30;;;;;;;25.40;59.51;95028.03;5013564;28;20571;-59
2023/05/29 10:08:38;;;;;;;0.30;0.30;;;;;;;25.49;56.12;95026.63;5014088;28;20472;-60
2023/05/29 10:11:15;;;;;;;0.30;0.20;;;;;;;25.80;55.10;95025.41;5013125;28;20448;-59
2023/05/29 10:13:48;;;;;;;0.40;0.30;;;;;;;25.09;57.39;95021.84;5013419;28;20440;-59
2023/05/29 10:16:19;;;;;;;0.43;0.30;;;;;;;25.32;56.80;95031.81;5013729;28;20867;-59
2023/05/29 10:18:52;;;;;;;2.30;0.53;;;;;;;25.15;55.78;95031.22;5013507;28;20448;-59
2023/05/29 10:21:23;;;;;;;0.40;0.40;;;;;;;24.15;58.33;95032.03;5013663;28;20499;-60
2023/05/29 10:23:52;;;;;;;1.33;0.50;;;;;;;23.76;58.12;95028.59;5013207;28;20591;-60
2023/05/29 10:26:26;;;;;;;0.77;0.77;;;;;;;24.15;59.88;95023.91;5013104;28;20444;-59
2023/05/29 10:29:04;;;;;;;0.60;0.60;;;;;;;25.09;58.52;95024.56;5013391;28;20457;-60
2023/05/29 10:31:40;;;;;;;0.40;0.30;;;;;;;25.21;57.72;95018.91;5012924;28;20452;-59
2023/05/29 10:34:22;;;;;;;7.40;0.57;;;;;;;24.73;55.78;95008.94;5013727;28;20479;-59
2023/05/29 10:36:57;;;;;;;0.50;0.33;;;;;;;24.93;57.04;95018.53;5013118;28;20827;-59
2023/05/29 10:39:25;;;;;;;0.50;0.40;;;;;;;25.08;55.12;95014.84;5013209;28;20891;-59
2023/05/29 10:41:58;;;;;;;0.40;0.30;;;;;;;25.99;54.89;95011.59;5013196;28;20455;-58
2023/05/29 10:44:41;;;;;;;0.50;0.40;;;;;;;27.09;51.57;95011.28;5013051;28;20476;-58
2023/05/29 10:47:12;;;;;;;0.40;0.37;;;;;;;26.72;49.94;95007.16;5012987;28;20444;-58
2023/05/29 10:49:49;;;;;;;0.63;0.63;;;;;;;27.60;50.01;94997.50;5012730;28;21034;-57
2023/05/29 10:52:21;;;;;;;0.50;0.40;;;;;;;27.54;47.61;94998.25;5013258;28;20476;-58
2023/05/29 10:54:54;;;;;;;0.50;0.40;;;;;;;26.63;48.07;94960.50;5012627;28;20475;-58
2023/05/29 10:57:26;;;;;;;0.40;0.40;;;;;;;27.02;47.52;94985.97;5013064;28;20475;-56
2023/05/29 11:00:06;;;;;;;0.60;0.40;;;;;;;26.93;47.45;94977.38;5012492;28;20445;-57
2023/05/29 11:02:39;;;;;;;2.53;0.60;;;;;;;26.29;47.18;94925.34;5012272;28;20454;-57
2023/05/29 11:05:20;;;;;;;1.33;0.57;;;;;;;26.45;48.83;94965.81;5012437;28;20567;-57
2023/05/29 11:07:58;;;;;;;0.40;0.30;;;;;;;25.12;49.63;94968.81;5012632;28;20447;-58
2023/05/29 11:10:56;;;;;;;0.40;0.30;;;;;;;24.77;50.48;94962.91;5012630;28;20514;-58
2023/05/29 11:13:28;;;;;;;0.70;0.50;;;;;;;25.09;51.09;94966.81;5012533;28;20940;-58
2023/05/29 11:16:11;;;;;;;0.63;0.63;;;;;;;24.92;51.83;94960.03;5012430;28;20440;-57
2023/05/29 11:18:44;;;;;;;0.40;0.30;;;;;;;24.50;51.40;94919.56;5012605;28;20876;-57
2023/05/29 11:21:32;;;;;;;0.50;0.30;;;;;;;24.96;54.00;94946.53;5012517;28;20437;-56
2023/05/29 11:24:04;;;;;;;0.60;0.60;;;;;;;24.89;51.28;94944.50;5011864;28;21063;-57
2023/05/29 11:26:38;;;;;;;0.60;0.60;;;;;;;24.72;52.72;94939.59;5012451;28;20448;-57
2023/05/29 11:29:10;;;;;;;0.50;0.50;;;;;;;24.92;53.01;94943.75;4999403;28;20453;-56
2023/05/29 11:31:41;;;;;;;0.50;0.40;;;;;;;25.55;51.45;94927.41;5012014;28;20540;-56
2023/05/29 11:34:15;;;;;;;0.63;0.63;;;;;;;26.16;47.73;94924.06;5012140;28;20448;-57
2023/05/29 11:36:44;;;;;;;1.37;0.40;;;;;;;25.72;48.41;94939.59;5012174;28;20444;-58
2023/05/29 11:39:12;;;;;;;0.47;0.40;;;;;;;25.88;48.35;94928.50;5012080;28;20499;-59
2023/05/29 11:41:41;;;;;;;0.40;0.40;;;;;;;26.64;49.15;94926.72;5011922;28;20471;-58